SEEOK EDDV-

Flight info

Callsign SEEOK
Flight time N/A
Altitude
Route
Aircraft PA50

Departure

Time 2026-05-04 12:18
Airport Hannover Airport (EDDV)

Arrival

Time N/A
Airport -
Time Latitude Longitude Altitude Speed Heading
2026-05-04 12:12 52.46328 9.69320 186 ft 0 kts 72°
2026-05-04 12:14 52.46191 9.68740 186 ft 17 kts 161°
2026-05-04 12:15 52.46088 9.68860 186 ft 19 kts 144°
2026-05-04 12:15 52.45978 9.68998 186 ft 19 kts 143°
2026-05-04 12:15 52.45864 9.69138 186 ft 20 kts 142°
2026-05-04 12:15 52.45738 9.69164 186 ft 20 kts 203°
2026-05-04 12:16 52.45608 9.69144 186 ft 16 kts 185°
2026-05-04 12:16 52.45506 9.69135 186 ft 13 kts 181°
2026-05-04 12:16 52.45458 9.69121 186 ft 1 kts 271°
2026-05-04 12:17 52.45459 9.69092 186 ft 16 kts 273°
2026-05-04 12:17 52.45477 9.68466 186 ft 85 kts 273°
2026-05-04 12:17 52.45490 9.67351 306 ft 108 kts 270°
2026-05-04 12:17 52.45489 9.66086 647 ft 111 kts 270°
2026-05-04 12:18 52.45501 9.64822 891 ft 113 kts 276°
2026-05-04 12:18 52.45826 9.63719 1167 ft 110 kts 322°
2026-05-04 12:18 52.46592 9.63500 1366 ft 115 kts 359°
2026-05-04 12:18 52.47397 9.63571 1576 ft 117 kts
2026-05-04 12:19 52.48115 9.64155 1796 ft 121 kts 46°
2026-05-04 12:19 52.48369 9.65509 1881 ft 136 kts 91°
2026-05-04 12:19 52.48318 9.67116 1911 ft 148 kts 92°
2026-05-04 12:19 52.48233 9.68850 1914 ft 157 kts 95°
2026-05-04 12:20 52.48122 9.70673 1905 ft 164 kts 95°
2026-05-04 12:20 52.48235 9.72518 1909 ft 166 kts 68°
2026-05-04 12:20 52.48879 9.74082 1904 ft 168 kts 50°
2026-05-04 12:20 52.49608 9.75570 1942 ft 167 kts 50°
2026-05-04 12:21 52.50500 9.76770 1959 ft 166 kts 36°
2026-05-04 12:21 52.51444 9.77876 1964 ft 168 kts 33°
2026-05-04 12:21 52.52398 9.78993 1963 ft 169 kts 34°
2026-05-04 12:21 52.53352 9.80113 1961 ft 169 kts 34°
2026-05-04 12:22 52.54388 9.80885 1947 ft 165 kts
2026-05-04 12:22 52.55455 9.80336 1959 ft 162 kts 335°
2026-05-04 12:22 52.56481 9.79569 1959 ft 162 kts 334°
2026-05-04 12:22 52.57510 9.78791 1956 ft 162 kts 336°
2026-05-04 12:23 52.58612 9.78912 1947 ft 167 kts 25°
2026-05-04 12:23 52.59343 9.80376 1948 ft 171 kts 70°
2026-05-04 12:23 52.59424 9.82331 1959 ft 172 kts 89°
2026-05-04 12:23 52.59392 9.84201 2311 ft 149 kts 91°
2026-05-04 12:24 52.59344 9.85783 2681 ft 133 kts 92°
2026-05-04 12:24 52.59296 9.87286 2912 ft 131 kts 92°
2026-05-04 12:24 52.59255 9.88786 3116 ft 131 kts 92°
2026-05-04 12:24 52.59218 9.90284 3309 ft 132 kts 92°
2026-05-04 12:25 52.59185 9.91788 3500 ft 133 kts 91°
2026-05-04 12:25 52.59155 9.93307 3682 ft 134 kts 91°
2026-05-04 12:25 52.59124 9.94852 3868 ft 136 kts 91°
2026-05-04 12:25 52.59093 9.96441 3947 ft 145 kts 91°
2026-05-04 12:26 52.59058 9.98153 3960 ft 156 kts 91°
2026-05-04 12:26 52.59020 9.99998 3960 ft 164 kts 91°
2026-05-04 12:26 52.58982 10.01874 3958 ft 169 kts 91°
2026-05-04 12:26 52.59069 10.03858 3957 ft 174 kts 79°
2026-05-04 12:27 52.59289 10.05809 3957 ft 177 kts 78°
2026-05-04 12:27 52.59527 10.07830 3954 ft 179 kts 78°
2026-05-04 12:27 52.59768 10.09837 3954 ft 180 kts 78°
2026-05-04 12:27 52.60189 10.11753 3938 ft 180 kts 50°
2026-05-04 12:28 52.61246 10.12670 3942 ft 174 kts
2026-05-04 12:28 52.62358 10.12097 3942 ft 169 kts 318°
2026-05-04 12:28 52.62852 10.10430 3942 ft 167 kts 273°
2026-05-04 12:28 52.62465 10.08685 3943 ft 168 kts 230°
2026-05-04 12:29 52.61537 10.07509 3955 ft 169 kts 218°
2026-05-04 12:29 52.60565 10.06408 3954 ft 170 kts 215°
2026-05-04 12:29 52.59620 10.05261 3947 ft 169 kts 228°
2026-05-04 12:29 52.59051 10.03598 3951 ft 167 kts 254°
2026-05-04 12:30 52.58953 10.01736 3943 ft 166 kts 284°
2026-05-04 12:30 52.59598 10.00194 3946 ft 168 kts 321°
2026-05-04 12:30 52.60710 9.99650 3945 ft 173 kts 360°
2026-05-04 12:30 52.61800 10.00447 3944 ft 178 kts 42°
2026-05-04 12:31 52.62344 10.02276 3955 ft 180 kts 74°
2026-05-04 12:31 52.62616 10.04261 3943 ft 181 kts 87°
2026-05-04 12:31 52.62152 10.06112 3943 ft 179 kts 135°
2026-05-04 12:31 52.61045 10.06916 3945 ft 174 kts 178°
2026-05-04 12:32 52.59929 10.06338 3945 ft 170 kts 219°
2026-05-04 12:32 52.58456 10.03411 3949 ft 171 kts 214°
2026-05-04 12:32 52.57345 10.02748 3953 ft 173 kts 193°
2026-05-04 12:33 52.56141 10.02499 3955 ft 174 kts 187°
2026-05-04 12:33 52.54922 10.02355 3954 ft 175 kts 186°
2026-05-04 12:33 52.53711 10.02216 3954 ft 175 kts 185°
2026-05-04 12:33 52.52489 10.02120 3954 ft 175 kts 185°
2026-05-04 12:34 52.51279 10.02017 3954 ft 175 kts 185°
2026-05-04 12:34 52.50063 10.01901 3954 ft 175 kts 186°
2026-05-04 12:34 52.48847 10.01774 3955 ft 175 kts 186°
2026-05-04 12:34 52.47642 10.01642 3956 ft 174 kts 186°
2026-05-04 12:35 52.46499 10.01099 3846 ft 172 kts 216°
2026-05-04 12:35 52.45733 9.99653 3720 ft 169 kts 241°
2026-05-04 12:35 52.45103 9.98047 3525 ft 171 kts 255°
2026-05-04 12:35 52.44878 9.96102 3265 ft 174 kts 265°
2026-05-04 12:36 52.44808 9.94114 3002 ft 176 kts 269°
2026-05-04 12:36 52.44816 9.92148 2745 ft 172 kts 272°
2026-05-04 12:36 52.44855 9.90217 2500 ft 168 kts 273°
2026-05-04 12:36 52.44905 9.88306 2262 ft 165 kts 274°
2026-05-04 12:37 52.44958 9.86495 2036 ft 156 kts 274°
2026-05-04 12:37 52.45006 9.84838 1828 ft 139 kts 273°
2026-05-04 12:37 52.45051 9.83281 1645 ft 135 kts 274°
2026-05-04 12:37 52.45097 9.81756 1467 ft 133 kts 273°
2026-05-04 12:38 52.45140 9.80250 1291 ft 129 kts 274°
2026-05-04 12:38 52.45179 9.78890 1126 ft 111 kts 274°
2026-05-04 12:38 52.45215 9.77695 1006 ft 102 kts 274°
2026-05-04 12:38 52.45246 9.76562 864 ft 96 kts 272°
2026-05-04 12:39 52.45277 9.75495 737 ft 93 kts 276°
2026-05-04 12:39 52.45312 9.74427 615 ft 92 kts 272°
2026-05-04 12:39 52.45324 9.73370 570 ft 97 kts 271°
2026-05-04 12:39 52.45351 9.72170 602 ft 112 kts 272°
2026-05-04 12:40 52.45367 9.70825 603 ft 123 kts 271°
2026-05-04 12:40 52.45406 9.69426 926 ft 123 kts 275°
2026-05-04 12:40 52.45454 9.68058 1306 ft 119 kts 275°
2026-05-04 12:40 52.45500 9.66724 1644 ft 118 kts 275°
2026-05-04 12:41 52.45544 9.65374 1974 ft 118 kts 275°
2026-05-04 12:41 52.45587 9.64034 2273 ft 119 kts 274°
2026-05-04 12:41 52.45757 9.62717 2556 ft 121 kts 298°
2026-05-04 12:41 52.46275 9.61652 2855 ft 121 kts 314°
2026-05-04 12:42 52.46884 9.60692 3143 ft 121 kts 317°
2026-05-04 12:42 52.47509 9.59775 3422 ft 122 kts 317°
2026-05-04 12:42 52.48143 9.58856 3700 ft 122 kts 317°
2026-05-04 12:42 52.48777 9.57929 3921 ft 127 kts 316°
2026-05-04 12:43 52.49474 9.56899 3966 ft 142 kts 316°
2026-05-04 12:43 52.50261 9.55802 3967 ft 155 kts 326°
2026-05-04 12:43 52.51316 9.55272 3967 ft 165 kts 352°
2026-05-04 12:43 52.52484 9.55170 3966 ft 170 kts 357°
2026-05-04 12:44 52.53677 9.55162 3965 ft 173 kts 359°
2026-05-04 12:44 52.54892 9.55180 3964 ft 175 kts 359°
2026-05-04 12:44 52.56102 9.55213 3961 ft 176 kts
2026-05-04 12:44 52.57285 9.55820 3960 ft 179 kts 27°
2026-05-04 12:45 52.58230 9.57166 3959 ft 183 kts 51°
2026-05-04 12:45 52.58746 9.59064 3956 ft 184 kts 78°
2026-05-04 12:45 52.58834 9.61149 3959 ft 184 kts 88°
2026-05-04 12:45 52.58860 9.63266 3958 ft 184 kts 89°
2026-05-04 12:46 52.58861 9.65359 3958 ft 184 kts 90°
2026-05-04 12:46 52.58859 9.67457 3957 ft 183 kts 90°
2026-05-04 12:46 52.58861 9.69538 3957 ft 181 kts 89°
2026-05-04 12:46 52.58866 9.71607 3957 ft 180 kts 89°
2026-05-04 12:47 52.58875 9.73664 3957 ft 180 kts 89°
2026-05-04 12:47 52.58882 9.75712 3958 ft 180 kts 89°
2026-05-04 12:47 52.58889 9.77763 3958 ft 180 kts 90°
2026-05-04 12:47 52.58896 9.79837 3957 ft 181 kts 89°
2026-05-04 12:48 52.58904 9.81889 3957 ft 181 kts 89°
2026-05-04 12:48 52.58910 9.83976 3957 ft 181 kts 90°
2026-05-04 12:48 52.58917 9.86029 3956 ft 181 kts 90°
2026-05-04 12:48 52.58923 9.88086 3956 ft 181 kts 90°
2026-05-04 12:49 52.58929 9.90165 3956 ft 181 kts 90°
2026-05-04 12:49 52.58934 9.92234 3956 ft 181 kts 90°
2026-05-04 12:49 52.58940 9.94308 3955 ft 181 kts 89°
2026-05-04 12:49 52.58945 9.96365 3956 ft 181 kts 89°
2026-05-04 12:50 52.58949 9.98426 3955 ft 181 kts 89°
2026-05-04 12:50 52.58953 10.00501 3955 ft 181 kts 89°
2026-05-04 12:50 52.58900 10.02582 3951 ft 181 kts 99°
2026-05-04 12:50 52.58503 10.04548 3956 ft 181 kts 113°
2026-05-04 12:51 52.57991 10.06420 3955 ft 181 kts 116°
2026-05-04 12:51 52.57438 10.08295 3955 ft 181 kts 117°
2026-05-04 12:51 52.56887 10.10138 3955 ft 181 kts 117°
2026-05-04 12:51 52.56338 10.11983 3955 ft 181 kts 117°
2026-05-04 12:52 52.55790 10.13838 3955 ft 181 kts 116°
2026-05-04 12:52 52.55242 10.15700 3955 ft 181 kts 116°
2026-05-04 12:52 52.54697 10.17562 3954 ft 181 kts 116°
2026-05-04 12:52 52.54147 10.19438 3954 ft 181 kts 116°
2026-05-04 12:53 52.53605 10.21287 3952 ft 181 kts 116°